createdAt,value
2023-02-23T00:02:32.112Z,100631.73
2023-02-23T00:05:04.370Z,100629.55
2023-02-23T00:07:36.895Z,100630.06
2023-02-23T00:10:12.285Z,100628.73
2023-02-23T00:12:45.614Z,100629.65
2023-02-23T00:15:18.109Z,100623.20
2023-02-23T00:17:51.867Z,100620.86
2023-02-23T00:20:27.726Z,100621.31
2023-02-23T00:23:00.452Z,100617.85
2023-02-23T00:25:32.635Z,100613.70
2023-02-23T00:28:07.328Z,100613.27
2023-02-23T00:30:39.582Z,100615.14
2023-02-23T00:33:12.173Z,100612.91
2023-02-23T00:35:45.828Z,100613.99
2023-02-23T00:38:19.097Z,100612.10
2023-02-23T00:40:51.420Z,100612.09
2023-02-23T00:43:25.281Z,100611.73
2023-02-23T00:45:58.973Z,100608.79
2023-02-23T00:48:31.153Z,100608.45
2023-02-23T00:51:06.677Z,100607.28
2023-02-23T00:53:39.073Z,100607.45
2023-02-23T00:56:13.494Z,100606.63
2023-02-23T00:58:45.844Z,100601.81
2023-02-23T01:01:19.042Z,100601.25
2023-02-23T01:03:53.248Z,100596.33
2023-02-23T01:06:26.108Z,100596.55
2023-02-23T01:08:58.657Z,100602.45
2023-02-23T01:11:32.111Z,100603.96
2023-02-23T01:14:04.587Z,100600.17
2023-02-23T01:16:39.147Z,100598.83
2023-02-23T01:19:13.510Z,100600.20
2023-02-23T01:21:46.868Z,100601.41
2023-02-23T01:24:19.064Z,100597.98
2023-02-23T01:26:51.355Z,100594.16
2023-02-23T01:29:23.654Z,100594.52
2023-02-23T01:31:56.148Z,100593.89
2023-02-23T01:34:29.862Z,100589.86
2023-02-23T01:37:03.308Z,100588.17
2023-02-23T01:39:35.530Z,100585.48
2023-02-23T01:42:13.928Z,100582.70
2023-02-23T01:45:27.219Z,100580.73
2023-02-23T01:48:03.773Z,100579.96
2023-02-23T01:50:43.873Z,100576.73
2023-02-23T01:53:18.603Z,100578.31
2023-02-23T01:55:55.172Z,100575.54
2023-02-23T01:58:29.824Z,100579.09
2023-02-23T02:01:03.454Z,100579.23
2023-02-23T02:03:39.564Z,100574.33
2023-02-23T02:06:18.235Z,100575.19
2023-02-23T02:08:54.960Z,100569.34
2023-02-23T02:11:30.974Z,100569.88
2023-02-23T02:14:09.213Z,100570.17
2023-02-23T02:17:21.144Z,100566.12
2023-02-23T02:20:32.160Z,100568.58
2023-02-23T02:23:51.408Z,100565.93
2023-02-23T02:26:34.402Z,100559.25
2023-02-23T02:29:33.809Z,100556.98
2023-02-23T02:32:33.382Z,100552.58
2023-02-23T02:35:22.153Z,100550.91
2023-02-23T02:38:05.968Z,100556.30
2023-02-23T02:40:53.533Z,100556.18
2023-02-23T02:43:47.093Z,100553.79
2023-02-23T02:46:24.224Z,100547.44
2023-02-23T02:49:03.033Z,100546.73
2023-02-23T02:51:42.637Z,100546.76
2023-02-23T02:54:22.861Z,100550.30
2023-02-23T02:57:00.529Z,100546.59
2023-02-23T02:59:50.822Z,100548.50
2023-02-23T03:02:43.570Z,100549.77
2023-02-23T03:05:36.507Z,100550.63
2023-02-23T03:08:35.735Z,100550.48
2023-02-23T03:11:28.861Z,100549.68
2023-02-23T03:14:30.043Z,100551.04
2023-02-23T03:17:29.984Z,100550.54
2023-02-23T03:20:30.339Z,100551.20
2023-02-23T03:23:31.618Z,100553.11
2023-02-23T03:26:28.719Z,100553.71
2023-02-23T03:29:25.907Z,100551.27
2023-02-23T03:32:25.914Z,100549.22
2023-02-23T03:35:24.893Z,100546.20
2023-02-23T03:38:21.864Z,100546.23
2023-02-23T03:41:13.259Z,100541.88
2023-02-23T03:44:08.788Z,100543.66
2023-02-23T03:47:01.272Z,100540.69
2023-02-23T03:49:55.948Z,100539.03
2023-02-23T03:52:50.152Z,100535.28
2023-02-23T03:55:46.062Z,100532.88
2023-02-23T03:58:42.208Z,100526.84
2023-02-23T04:01:35.091Z,100531.58
2023-02-23T04:04:27.424Z,100526.20
2023-02-23T04:07:19.819Z,100528.11
2023-02-23T04:10:10.117Z,100529.36
2023-02-23T04:13:04.550Z,100524.69
2023-02-23T04:15:38.575Z,100530.95
2023-02-23T04:18:16.028Z,100530.45
2023-02-23T04:20:48.328Z,100530.99
2023-02-23T04:23:22.950Z,100527.36
2023-02-23T04:25:56.186Z,100530.70
2023-02-23T04:28:29.782Z,100524.89
2023-02-23T04:31:02.316Z,100526.02
2023-02-23T04:33:34.711Z,100525.48
2023-02-23T04:36:07.961Z,100525.98
2023-02-23T04:38:40.160Z,100525.42
2023-02-23T04:41:12.308Z,100521.48
2023-02-23T04:43:44.578Z,100520.02
2023-02-23T04:46:16.801Z,100516.48
2023-02-23T04:48:49.168Z,100515.04
2023-02-23T04:51:21.375Z,100519.96
2023-02-23T04:53:53.612Z,100516.08
2023-02-23T04:56:26.056Z,100518.96
2023-02-23T04:58:58.532Z,100514.23
2023-02-23T05:01:32.814Z,100515.41
2023-02-23T05:04:05.560Z,100510.73
2023-02-23T05:06:38.012Z,100506.14
2023-02-23T05:09:10.701Z,100508.05
2023-02-23T05:11:43.022Z,100507.71
2023-02-23T05:14:15.256Z,100504.17
2023-02-23T05:16:47.632Z,100501.20
2023-02-23T05:19:19.872Z,100501.27
2023-02-23T05:21:52.015Z,100501.22
2023-02-23T05:24:24.315Z,100496.77
2023-02-23T05:26:56.627Z,100494.80
2023-02-23T05:29:28.910Z,100491.46
2023-02-23T05:32:01.219Z,100491.35
2023-02-23T05:34:33.425Z,100491.57
2023-02-23T05:37:05.789Z,100493.56
2023-02-23T05:39:38.014Z,100490.98
2023-02-23T05:42:10.359Z,100490.41
2023-02-23T05:44:42.511Z,100488.27
2023-02-23T05:47:14.896Z,100492.17
2023-02-23T05:49:47.317Z,100495.17
2023-02-23T05:52:19.648Z,100495.84
2023-02-23T05:54:51.812Z,100495.05
2023-02-23T05:57:23.956Z,100487.22
2023-02-23T05:59:56.085Z,100487.25
2023-02-23T06:02:28.707Z,100486.14
2023-02-23T06:05:01.250Z,100484.60
2023-02-23T06:07:33.499Z,100486.89
2023-02-23T06:10:06.572Z,100486.30
2023-02-23T06:12:38.836Z,100485.73
2023-02-23T06:15:12.522Z,100488.85
2023-02-23T06:17:45.518Z,100486.14
2023-02-23T06:20:17.949Z,100488.45
2023-02-23T06:22:50.295Z,100487.09
2023-02-23T06:25:22.466Z,100483.41
2023-02-23T06:27:54.899Z,100482.95
2023-02-23T06:30:27.164Z,100478.59
2023-02-23T06:32:59.360Z,100476.37
2023-02-23T06:35:32.319Z,100473.03
2023-02-23T06:38:05.824Z,100476.11
2023-02-23T06:40:38.957Z,100472.38
2023-02-23T06:43:11.248Z,100473.44
2023-02-23T06:45:43.436Z,100471.16
2023-02-23T06:48:15.668Z,100471.27
2023-02-23T06:50:47.837Z,100471.73
2023-02-23T06:53:20.472Z,100470.70
2023-02-23T06:55:52.635Z,100467.17
2023-02-23T06:58:24.837Z,100463.98
2023-02-23T07:00:58.682Z,100459.73
2023-02-23T07:03:30.801Z,100461.08
2023-02-23T07:06:04.840Z,100456.22
2023-02-23T07:08:37.006Z,100454.86
2023-02-23T07:11:10.986Z,100449.68
2023-02-23T07:13:43.669Z,100447.91
2023-02-23T07:16:16.497Z,100443.69
2023-02-23T07:18:48.674Z,100441.77
2023-02-23T07:21:21.185Z,100438.59
2023-02-23T07:23:53.361Z,100438.40
2023-02-23T07:26:25.777Z,100435.89
2023-02-23T07:28:57.907Z,100436.96
2023-02-23T07:31:30.209Z,100433.38
2023-02-23T07:34:02.421Z,100425.56
2023-02-23T07:36:34.463Z,100423.10
2023-02-23T07:39:06.693Z,100424.42
2023-02-23T07:41:38.885Z,100423.27
2023-02-23T07:44:14.995Z,100423.70
2023-02-23T07:46:47.618Z,100422.88
2023-02-23T07:49:19.795Z,100423.92
2023-02-23T07:51:51.955Z,100419.48
2023-02-23T07:54:25.561Z,100415.76
2023-02-23T07:56:57.681Z,100419.80
2023-02-23T07:59:30.492Z,100411.92
2023-02-23T08:02:02.756Z,100410.02
2023-02-23T08:04:34.874Z,100407.95
2023-02-23T08:07:07.234Z,100401.63
2023-02-23T08:09:39.723Z,100403.29
2023-02-23T08:12:11.943Z,100398.61
2023-02-23T08:14:44.523Z,100398.34
2023-02-23T08:17:16.814Z,100399.46
2023-02-23T08:19:50.056Z,100395.89
2023-02-23T08:22:23.049Z,100398.97
2023-02-23T08:24:55.214Z,100402.15
2023-02-23T08:27:27.467Z,100403.83
2023-02-23T08:30:00.913Z,100399.08
2023-02-23T08:32:35.094Z,100393.39
2023-02-23T08:35:08.948Z,100394.33
2023-02-23T08:37:42.010Z,100393.05
2023-02-23T08:40:18.398Z,100390.14
2023-02-23T08:42:52.218Z,100385.39
2023-02-23T08:45:24.462Z,100385.63
2023-02-23T08:47:57.633Z,100380.46
2023-02-23T08:50:29.821Z,100379.44
2023-02-23T08:53:01.964Z,100376.29
2023-02-23T08:55:35.719Z,100376.55
2023-02-23T08:58:10.791Z,100370.77
2023-02-23T09:00:41.412Z,100369.68
2023-02-23T09:03:13.494Z,100366.05
2023-02-23T09:05:45.783Z,100363.85
2023-02-23T09:08:19.124Z,100367.59
2023-02-23T09:10:51.492Z,100357.61
2023-02-23T09:13:23.712Z,100353.50
2023-02-23T09:15:56.088Z,100355.39
2023-02-23T09:18:29.688Z,100348.36
2023-02-23T09:21:07.049Z,100346.25
2023-02-23T09:23:39.297Z,100344.85
2023-02-23T09:26:12.103Z,100339.58
2023-02-23T09:28:44.236Z,100335.03
2023-02-23T09:31:18.773Z,100331.06
2023-02-23T09:33:51.428Z,100331.75
2023-02-23T09:36:25.181Z,100327.04
2023-02-23T09:38:58.682Z,100325.55
2023-02-23T09:41:51.972Z,100321.21
2023-02-23T09:44:37.399Z,100314.19
2023-02-23T09:47:14.581Z,100314.85
2023-02-23T09:49:49.132Z,100315.12
2023-02-23T09:52:25.377Z,100307.70
2023-02-23T09:54:59.089Z,100309.27
2023-02-23T09:57:38.363Z,100307.20
2023-02-23T10:00:19.983Z,100303.09
2023-02-23T10:03:22.384Z,100302.95
2023-02-23T10:06:01.312Z,100298.75
2023-02-23T10:08:49.656Z,100292.41
2023-02-23T10:11:31.098Z,100291.50
2023-02-23T10:14:20.387Z,100286.72
2023-02-23T10:17:05.251Z,100279.56
2023-02-23T10:19:44.672Z,100276.42
2023-02-23T10:22:18.920Z,100269.24
2023-02-23T10:24:57.184Z,100265.96
2023-02-23T10:27:38.940Z,100269.89
2023-02-23T10:30:22.196Z,100268.80
2023-02-23T10:33:00.657Z,100265.76
2023-02-23T10:35:33.883Z,100264.45
2023-02-23T10:38:06.374Z,100261.30
2023-02-23T10:40:38.645Z,100260.54
2023-02-23T10:43:14.499Z,100259.38
2023-02-23T10:45:50.585Z,100256.60
2023-02-23T10:48:26.271Z,100254.30
2023-02-23T10:51:03.156Z,100247.86
2023-02-23T10:53:37.719Z,100247.48
2023-02-23T10:56:13.850Z,100238.86
2023-02-23T10:58:48.840Z,100237.95
2023-02-23T11:01:35.432Z,100230.00
2023-02-23T11:04:22.189Z,100226.50
2023-02-23T11:07:06.672Z,100221.83
2023-02-23T11:09:46.949Z,100212.48
2023-02-23T11:12:26.385Z,100211.13
2023-02-23T11:14:59.980Z,100202.68
2023-02-23T11:17:35.483Z,100204.48
2023-02-23T11:20:21.418Z,100188.95
2023-02-23T11:22:55.747Z,100190.64
2023-02-23T11:25:32.688Z,100187.70
2023-02-23T11:28:05.044Z,100183.54
2023-02-23T11:30:43.079Z,100182.05
2023-02-23T11:33:21.608Z,100177.19
2023-02-23T11:36:01.871Z,100169.77
2023-02-23T11:38:34.527Z,100169.33
2023-02-23T11:41:18.613Z,100165.64
2023-02-23T11:43:52.862Z,100165.96
2023-02-23T11:46:26.876Z,100169.46
2023-02-23T11:49:02.955Z,100166.10
2023-02-23T11:51:37.693Z,100158.33
2023-02-23T11:54:21.314Z,100155.27
2023-02-23T11:56:55.380Z,100154.11
2023-02-23T11:59:33.981Z,100150.65
2023-02-23T12:02:23.164Z,100146.19
2023-02-23T12:05:06.911Z,100140.33
2023-02-23T12:07:47.508Z,100143.31
2023-02-23T12:10:29.476Z,100137.29
2023-02-23T12:13:10.917Z,100137.10
2023-02-23T12:15:50.072Z,100135.18
2023-02-23T12:18:44.925Z,100133.48
2023-02-23T12:21:31.236Z,100130.80
2023-02-23T12:24:13.947Z,100125.86
2023-02-23T12:26:51.924Z,100125.33
2023-02-23T12:29:32.744Z,100126.56
2023-02-23T12:32:10.873Z,100116.02
2023-02-23T12:34:48.824Z,100111.49
2023-02-23T12:37:32.103Z,100103.15
2023-02-23T12:40:12.337Z,100098.17
2023-02-23T12:42:52.209Z,100090.35
2023-02-23T12:45:36.576Z,100089.45
2023-02-23T12:48:20.175Z,100084.93
2023-02-23T12:50:56.769Z,100075.45
2023-02-23T12:53:42.939Z,100078.91
2023-02-23T12:56:25.898Z,100070.14
2023-02-23T12:59:06.949Z,100061.40
2023-02-23T13:01:44.860Z,100055.70
2023-02-23T13:04:52.600Z,100056.80
2023-02-23T13:07:34.633Z,100053.70
2023-02-23T13:10:21.951Z,100048.75
2023-02-23T13:13:06.915Z,100047.22
2023-02-23T13:15:57.486Z,100048.95
2023-02-23T13:18:35.928Z,100036.66
2023-02-23T13:21:16.695Z,100029.17
2023-02-23T13:24:02.668Z,100028.83
2023-02-23T13:26:44.513Z,100026.94
2023-02-23T13:29:31.854Z,100026.43
2023-02-23T13:32:06.249Z,100017.93
2023-02-23T13:34:43.907Z,100015.36
2023-02-23T13:37:20.667Z,100008.36
2023-02-23T13:40:04.685Z,100008.05
2023-02-23T13:42:44.342Z,100006.27
2023-02-23T13:45:35.995Z,100002.14
2023-02-23T13:48:20.501Z,100000.46
2023-02-23T13:51:00.737Z,99998.59
2023-02-23T13:53:41.439Z,99991.04
2023-02-23T13:56:19.080Z,99987.61
2023-02-23T13:58:57.968Z,99982.63
2023-02-23T14:01:34.694Z,99983.66
2023-02-23T14:04:14.288Z,99982.97
2023-02-23T14:06:56.899Z,99978.36
2023-02-23T14:09:36.799Z,99973.52
2023-02-23T14:12:19.517Z,99977.15
2023-02-23T14:14:51.924Z,99976.08
2023-02-23T14:17:50.564Z,99980.02
2023-02-23T14:20:43.538Z,99972.09
2023-02-23T14:23:35.502Z,99969.38
2023-02-23T14:26:36.390Z,99967.33
2023-02-23T14:29:25.709Z,99961.69
2023-02-23T14:32:00.865Z,99958.96
2023-02-23T14:34:53.168Z,99956.30
2023-02-23T14:37:33.248Z,99955.69
2023-02-23T14:40:12.954Z,99953.58
2023-02-23T14:42:51.020Z,99953.05
2023-02-23T14:45:27.315Z,99944.74
2023-02-23T14:48:04.240Z,99941.14
2023-02-23T14:50:39.192Z,99933.83
2023-02-23T14:53:21.000Z,99936.09
2023-02-23T14:55:53.216Z,99926.88
2023-02-23T14:58:28.521Z,99924.03
2023-02-23T15:01:01.074Z,99915.69
2023-02-23T15:03:33.295Z,99909.44
2023-02-23T15:06:06.569Z,99909.90
2023-02-23T15:08:45.776Z,99895.98
2023-02-23T15:11:19.864Z,99894.73
2023-02-23T15:13:54.995Z,99890.47
2023-02-23T15:16:32.338Z,99887.39
2023-02-23T15:19:06.476Z,99884.52
2023-02-23T15:21:40.611Z,99879.81
2023-02-23T15:24:16.704Z,99875.35
2023-02-23T15:26:49.254Z,99877.66
2023-02-23T15:29:23.958Z,99872.39
2023-02-23T15:31:58.301Z,99867.66
2023-02-23T15:34:32.134Z,99867.98
2023-02-23T15:37:09.243Z,99861.17
2023-02-23T15:39:46.840Z,99857.12
2023-02-23T15:42:23.590Z,99854.80
2023-02-23T15:45:02.857Z,99846.84
2023-02-23T15:47:38.396Z,99839.20
2023-02-23T15:50:34.930Z,99834.95
2023-02-23T15:53:22.159Z,99831.73
2023-02-23T15:56:01.031Z,99828.24
2023-02-23T15:58:44.545Z,99829.64
2023-02-23T16:01:26.141Z,99829.23
2023-02-23T16:04:06.688Z,99825.67
2023-02-23T16:06:41.993Z,99828.62
2023-02-23T16:09:27.542Z,99831.79
2023-02-23T16:12:04.567Z,99830.56
2023-02-23T16:14:44.713Z,99827.67
2023-02-23T16:17:26.297Z,99828.49
2023-02-23T16:20:11.399Z,99824.55
2023-02-23T16:22:46.411Z,99825.55
2023-02-23T16:25:18.119Z,99820.77
2023-02-23T16:27:59.573Z,99814.89
2023-02-23T16:30:43.426Z,99810.90
2023-02-23T16:33:21.836Z,99809.86
2023-02-23T16:36:07.187Z,99810.35
2023-02-23T16:38:39.434Z,99810.61
2023-02-23T16:41:17.927Z,99813.58
2023-02-23T16:43:51.322Z,99808.16
2023-02-23T16:46:28.873Z,99804.02
2023-02-23T16:49:10.423Z,99798.83
2023-02-23T16:51:43.287Z,99796.17
2023-02-23T16:54:15.431Z,99794.29
2023-02-23T16:56:49.497Z,99792.54
2023-02-23T16:59:22.148Z,99788.15
2023-02-23T17:01:54.394Z,99788.76
2023-02-23T17:04:26.576Z,99790.20
2023-02-23T17:07:00.945Z,99794.62
2023-02-23T17:09:33.080Z,99793.90
2023-02-23T17:12:05.506Z,99788.00
2023-02-23T17:14:37.721Z,99782.63
2023-02-23T17:17:14.884Z,99777.52
2023-02-23T17:19:47.170Z,99776.71
2023-02-23T17:22:19.341Z,99768.64
2023-02-23T17:24:51.510Z,99766.25
2023-02-23T17:27:23.680Z,99760.30
2023-02-23T17:29:55.918Z,99762.23
2023-02-23T17:32:31.746Z,99764.16
2023-02-23T17:35:05.147Z,99757.41
2023-02-23T17:37:38.668Z,99751.48
2023-02-23T17:40:14.605Z,99744.49
2023-02-23T17:42:46.926Z,99741.70
2023-02-23T17:45:19.632Z,99736.33
2023-02-23T17:47:52.086Z,99728.38
2023-02-23T17:50:27.098Z,99722.10
2023-02-23T17:52:59.448Z,99718.23
2023-02-23T17:55:31.894Z,99712.17
2023-02-23T17:58:04.177Z,99707.88
2023-02-23T18:00:39.007Z,99705.23
2023-02-23T18:03:11.290Z,99698.17
2023-02-23T18:07:14.219Z,99693.45
2023-02-23T18:09:47.417Z,99687.16
2023-02-23T18:12:20.768Z,99683.25
2023-02-23T18:14:53.168Z,99681.02
2023-02-23T18:17:25.333Z,99677.61
2023-02-23T18:19:57.473Z,99676.05
2023-02-23T18:22:29.684Z,99668.36
2023-02-23T18:25:01.873Z,99661.58
2023-02-23T18:27:34.032Z,99659.20
2023-02-23T18:30:07.423Z,99645.69
2023-02-23T18:32:39.680Z,99648.54
2023-02-23T18:35:12.566Z,99659.05
2023-02-23T18:37:45.015Z,99656.14
2023-02-23T18:40:21.631Z,99652.55
2023-02-23T18:42:53.824Z,99646.29
2023-02-23T18:45:25.978Z,99642.84
2023-02-23T18:47:58.591Z,99637.94
2023-02-23T18:50:30.796Z,99634.26
2023-02-23T18:53:05.300Z,99635.81
2023-02-23T18:55:41.036Z,99633.71
2023-02-23T18:58:13.440Z,99633.19
2023-02-23T19:00:45.968Z,99625.92
2023-02-23T19:03:18.186Z,99616.51
2023-02-23T19:05:53.188Z,99613.85
2023-02-23T19:08:23.973Z,99613.91
2023-02-23T19:10:58.355Z,99609.88
2023-02-23T19:13:30.529Z,99605.78
2023-02-23T19:16:06.036Z,99601.02
2023-02-23T19:18:38.414Z,99599.55
2023-02-23T19:21:11.097Z,99594.89
2023-02-23T19:23:44.132Z,99587.71
2023-02-23T19:26:18.563Z,99585.34
2023-02-23T19:28:51.021Z,99581.47
2023-02-23T19:31:26.186Z,99583.17
2023-02-23T19:33:59.859Z,99573.04
2023-02-23T19:36:33.940Z,99574.31
2023-02-23T19:39:12.872Z,99567.89
2023-02-23T19:41:47.227Z,99567.66
2023-02-23T19:44:19.526Z,99565.07
2023-02-23T19:46:51.696Z,99562.02
2023-02-23T19:49:24.121Z,99560.52
2023-02-23T19:51:57.867Z,99556.88
2023-02-23T19:54:34.087Z,99559.70
2023-02-23T19:57:06.632Z,99557.57
2023-02-23T19:59:39.349Z,99559.11
2023-02-23T20:02:13.603Z,99554.38
2023-02-23T20:04:48.352Z,99552.64
2023-02-23T20:07:21.282Z,99550.09
2023-02-23T20:09:53.769Z,99547.85
2023-02-23T20:12:26.050Z,99538.80
2023-02-23T20:14:58.221Z,99538.10
2023-02-23T20:17:30.463Z,99535.80
2023-02-23T20:20:02.630Z,99530.20
2023-02-23T20:22:36.498Z,99527.43
2023-02-23T20:25:15.998Z,99528.02
2023-02-23T20:27:49.044Z,99527.13
2023-02-23T20:30:22.079Z,99524.39
2023-02-23T20:32:54.441Z,99522.27
2023-02-23T20:35:27.468Z,99518.31
2023-02-23T20:37:59.666Z,99514.52
2023-02-23T20:40:31.927Z,99510.70
2023-02-23T20:43:04.358Z,99507.55
2023-02-23T20:45:36.871Z,99503.17
2023-02-23T20:48:10.685Z,99502.16
2023-02-23T20:50:43.498Z,99492.08
2023-02-23T20:53:15.898Z,99487.46
2023-02-23T20:55:48.040Z,99480.95
2023-02-23T20:58:25.659Z,99479.27
2023-02-23T21:01:06.480Z,99475.36
2023-02-23T21:03:38.780Z,99474.09
2023-02-23T21:06:11.194Z,99467.42
2023-02-23T21:08:46.369Z,99463.10
2023-02-23T21:11:20.741Z,99456.25
2023-02-23T21:13:53.456Z,99456.73
2023-02-23T21:16:26.505Z,99456.02
2023-02-23T21:19:05.006Z,99452.77
2023-02-23T21:21:41.393Z,99449.09
2023-02-23T21:24:15.046Z,99448.19
2023-02-23T21:26:48.059Z,99447.67
2023-02-23T21:29:24.016Z,99446.02
2023-02-23T21:31:56.592Z,99441.95
2023-02-23T21:34:29.038Z,99440.92
2023-02-23T21:37:01.599Z,99434.33
2023-02-23T21:39:34.251Z,99428.35
2023-02-23T21:42:07.114Z,99430.27
2023-02-23T21:44:39.359Z,99426.30
2023-02-23T21:47:11.628Z,99425.63
2023-02-23T21:49:49.190Z,99421.72
2023-02-23T21:52:21.737Z,99419.27
2023-02-23T21:54:54.484Z,99414.73
2023-02-23T21:57:28.347Z,99412.48
2023-02-23T22:00:00.869Z,99408.71
2023-02-23T22:02:33.831Z,99406.93
2023-02-23T22:05:06.808Z,99405.20
2023-02-23T22:07:39.433Z,99404.19
2023-02-23T22:10:12.697Z,99400.18
2023-02-23T22:12:44.906Z,99399.10
2023-02-23T22:15:17.691Z,99397.34
2023-02-23T22:17:50.030Z,99395.58
2023-02-23T22:20:22.904Z,99391.77
2023-02-23T22:22:55.061Z,99387.80
2023-02-23T22:25:27.320Z,99387.59
2023-02-23T22:27:59.504Z,99377.75
2023-02-23T22:30:31.682Z,99375.59
2023-02-23T22:33:04.106Z,99378.95
2023-02-23T22:35:40.206Z,99376.52
2023-02-23T22:38:12.297Z,99367.64
2023-02-23T22:40:47.467Z,99365.88
2023-02-23T22:43:22.141Z,99361.55
2023-02-23T22:45:58.283Z,99358.38
2023-02-23T22:48:30.518Z,99356.08
2023-02-23T22:51:02.861Z,99351.08
2023-02-23T22:53:35.092Z,99347.38
2023-02-23T22:56:08.588Z,99339.18
2023-02-23T22:58:42.279Z,99332.94
2023-02-23T23:01:14.896Z,99329.40
2023-02-23T23:03:49.184Z,99326.59
2023-02-23T23:06:23.170Z,99320.31
2023-02-23T23:08:58.281Z,99316.91
2023-02-23T23:11:30.703Z,99315.64
2023-02-23T23:14:06.989Z,99309.11
2023-02-23T23:16:47.863Z,99302.98
2023-02-23T23:19:24.418Z,99296.79
2023-02-23T23:22:00.589Z,99290.98
2023-02-23T23:24:33.253Z,99285.61
2023-02-23T23:27:08.294Z,99284.91
2023-02-23T23:29:38.894Z,99279.00
2023-02-23T23:32:11.217Z,99277.93
2023-02-23T23:34:43.800Z,99274.35
2023-02-23T23:37:16.601Z,99272.89
2023-02-23T23:39:59.328Z,99268.19
2023-02-23T23:42:31.894Z,99268.91
2023-02-23T23:45:06.224Z,99257.88
2023-02-23T23:47:38.645Z,99255.08
2023-02-23T23:50:13.266Z,99246.87
2023-02-23T23:52:47.027Z,99245.20
2023-02-23T23:55:19.326Z,99240.56
2023-02-23T23:57:52.255Z,99237.55
